Data for 04/19/2009

Time Sea-Level Adjusted Pressure Absolute Pressure Temperature Relative Humidity Dew Point   
(mb) (inHg) (mb) (inHg) (C) (F) (%) (C) (F)
00:05 1026 30.3 855 25.25 4.2 39.6 49 -5.4 22.3
00:10 1026 30.3 855 25.25 4.2 39.6 50 -5.3 22.5
00:15 1026 30.3 855 25.25 4 39.2 51 -5.3 22.5
00:20 1026 30.3 855 25.25 3.9 39.1 52 -5.1 22.8
00:25 1026 30.3 855 25.25 3.8 38.9 51 -5.4 22.2
00:30 1026 30.3 855 25.25 3.9 39 48 -6.1 21
00:35 1026 30.3 855 25.25 4.3 39.7 49 -5.6 21.9
00:40 1026 30.3 855 25.25 4.1 39.3 49 -5.7 21.8
00:45 1026 30.3 855 25.25 4 39.2 50 -5.6 22
00:50 1026 30.3 855 25.25 3.9 39 50 -5.7 21.8
00:55 1026 30.3 855 25.25 3.8 38.9 51 -5.5 22.1
01:00 1026 30.3 855 25.25 3.6 38.5 51 -5.7 21.7
01:05 1026 30.3 855 25.25 3.4 38.2 52 -5.5 22.1
01:10 1026 30.3 855 25.25 3.4 38.2 52 -5.6 21.9
01:15 1026 30.3 855 25.25 3.4 38.1 54 -5.2 22.7
01:20 1026 30.3 855 25.25 3.3 37.9 53 -5.4 22.3
01:25 1026 30.3 855 25.25 3.3 37.9 52 -5.6 22
01:30 1026 30.3 855 25.25 3.3 37.9 50 -6.1 21.1
01:35 1026 30.3 855 25.25 3.4 38.2 53 -5.3 22.5
01:40 1026 30.3 855 25.25 3.1 37.6 53 -5.6 21.9
01:45 1026 30.3 855 25.25 3.2 37.8 52 -5.8 21.6
01:50 1026 30.3 855 25.25 3.5 38.3 50 -6 21.2
01:55 1026 30.3 855 25.25 3.7 38.7 49 -6.1 21
02:00 1026 30.3 855 25.25 3.7 38.7 50 -5.9 21.4
02:05 1026 30.3 855 25.25 3.6 38.4 50 -5.9 21.3
02:10 1026 30.3 855 25.25 3.4 38 51 -5.9 21.4
02:15 1026 30.3 855 25.25 3.3 37.9 51 -5.9 21.4
02:20 1026 30.3 855 25.25 3.2 37.8 49 -6.5 20.3
02:25 1026 30.3 855 25.25 3.4 38 50 -6.2 20.8
02:30 1026 30.3 855 25.25 3.5 38.2 52 -5.6 21.9
02:35 1026 30.3 855 25.25 3.2 37.7 51 -6.1 21.1
02:40 1026 30.3 855 25.25 3.2 37.8 50 -6.2 20.9
02:45 1026 30.3 855 25.25 3.3 37.9 49 -6.4 20.5
02:50 1026 30.3 855 25.25 3.5 38.2 49 -6.4 20.5
02:55 1026 30.3 855 25.25 3.5 38.3 51 -5.8 21.6
03:00 1026 30.3 855 25.25 3.1 37.5 52 -5.8 21.5
03:05 1026 30.3 855 25.25 2.9 37.2 51 -6.3 20.7
03:10 1026 30.3 855 25.25 3.1 37.7 49 -6.6 20.1
03:15 1026 30.3 855 25.25 3.4 38.1 47 -6.7 19.9
03:20 1026 30.3 855 25.25 3.6 38.4 48 -6.3 20.6
03:25 1026 30.3 855 25.25 3.3 38 48 -6.8 19.8
03:30 1026 30.3 855 25.25 3.4 38.2 46 -7 19.5
03:35 1026 30.3 855 25.25 3.7 38.6 46 -7 19.4
03:40 1026 30.3 855 25.25 3.8 38.8 46 -6.7 19.9
03:45 1026 30.3 855 25.25 3.4 38.2 48 -6.6 20.1
03:50 1026 30.3 855 25.25 3.3 38 46 -7.1 19.3
03:55 1026 30.3 855 25.25 3.6 38.5 45 -7.4 18.7
04:00 1026 30.3 855 25.25 3.7 38.6 45 -7 19.3
04:05 1026 30.3 855 25.25 3.6 38.6 46 -7 19.3
04:10 1026 30.3 855 25.25 3.7 38.6 46 -6.8 19.7
04:15 1026 30.3 855 25.25 3.4 38.1 47 -7 19.5
04:20 1026 30.3 855 25.25 3.4 38.1 44 -7.7 18.2
04:25 1026 30.3 855 25.25 3.9 38.9 45 -7 19.4
04:30 1026 30.3 855 25.25 3.7 38.7 47 -6.7 20
04:35 1026 30.3 855 25.25 3.7 38.7 46 -6.8 19.7
04:40 1026 30.3 855 25.25 3.7 38.6 47 -6.7 19.9
04:45 1026 30.3 855 25.25 3.6 38.4 47 -6.8 19.7
04:50 1026 30.3 855 25.25 3.3 37.9 50 -6.2 20.8
04:55 1026 30.3 855 25.25 2.7 36.9 51 -6.3 20.7
05:00 1026 30.3 855 25.25 2.9 37.2 49 -6.9 19.6
05:05 1026 30.3 855 25.25 3.1 37.6 49 -6.6 20.2
05:10 1026 30.3 855 25.25 3.2 37.8 49 -6.6 20.1
05:15 1026 30.3 855 25.25 3.2 37.8 50 -6.3 20.6
05:20 1026 30.3 855 25.25 3 37.3 51 -6.3 20.6
05:25 1026 30.3 855 25.25 2.8 37.1 52 -6 21.2
05:30 1026 30.3 855 25.25 2.7 36.9 52 -6.1 21
05:35 1026 30.3 855 25.25 2.6 36.7 52 -6.2 20.9
05:40 1026 30.3 855 25.25 2.4 36.4 52 -6.4 20.5
05:45 1026 30.3 855 25.25 2.2 35.9 54 -6.2 20.8
05:50 1026 30.3 855 25.25 1.9 35.5 54 -6.5 20.2
05:55 1026 30.3 855 25.25 1.8 35.3 56 -6.1 21.1
06:00 1026 30.3 855 25.25 1.7 35 53 -6.9 19.7
06:05 1026 30.3 855 25.25 2.2 36 51 -7 19.4
06:10 1026 30.3 855 25.25 2.4 36.4 50 -7 19.4
06:15 1026 30.3 855 25.25 2.5 36.5 50 -7 19.5
06:20 1026 30.3 855 25.25 2.6 36.6 50 -6.9 19.5
06:25 1026 30.3 855 25.25 2.6 36.7 48 -7.2 19
06:30 1026 30.3 855 25.25 2.7 36.9 49 -7.1 19.3
06:35 1026 30.3 855 25.25 2.7 36.9 47 -7.4 18.6
06:40 1026 30.3 855 25.25 2.9 37.2 47 -7.4 18.7
06:45 1026 30.3 855 25.25 2.9 37.2 48 -7.2 19.1
06:50 1026 30.3 855 25.25 2.7 36.8 53 -6.1 21.1
06:55 1026 30.3 855 25.25 2.5 36.5 51 -6.6 20.2
07:00 1026 30.3 855 25.25 2.6 36.8 52 -6.3 20.7
07:05 1026 30.3 855 25.25 2.8 37 51 -6.4 20.6
07:10 1026 30.3 855 25.25 2.7 36.8 53 -5.9 21.3
07:15 1026 30.3 855 25.25 3 37.3 50 -6.4 20.6
07:20 1026 30.3 855 25.25 3.5 38.3 49 -6.3 20.7
07:25 1026 30.3 855 25.25 3.5 38.2 49 -6.1 21
07:30 1026 30.3 855 25.25 3.6 38.5 50 -5.7 21.7
07:35 1026 30.3 855 25.25 3.7 38.7 51 -5.5 22.1
07:40 1026 30.3 856 25.28 3.8 38.8 50 -5.8 21.6
07:45 1026 30.3 856 25.28 3.9 39.1 48 -6 21.2
07:50 1026 30.3 856 25.28 4.1 39.4 49 -5.6 22
07:55 1026 30.3 856 25.28 4.3 39.7 48 -5.7 21.8
08:00 1026 30.3 856 25.28 4.5 40.1 48 -5.7 21.7
08:05 1026 30.3 856 25.28 4.4 39.9 49 -5.3 22.5
08:10 1027 30.33 856 25.28 4.5 40.1 49 -5.2 22.6
08:15 1026 30.3 856 25.28 5.2 41.3 47 -5.1 22.8
08:20 1026 30.3 856 25.28 5.9 42.6 44 -5.5 22.2
08:25 1027 30.33 856 25.28 5.9 42.7 43 -5.6 22
08:30 1027 30.33 856 25.28 5.9 42.7 43 -5.7 21.8
08:35 1027 30.33 856 25.28 6.2 43.2 44 -5.1 22.8
08:40 1027 30.33 856 25.28 6.5 43.7 46 -4.4 24
08:45 1027 30.33 856 25.28 6.5 43.8 45 -4.7 23.6
08:50 1027 30.33 856 25.28 7 44.6 47 -3.6 25.5
08:55 1027 30.33 856 25.28 7.6 45.6 45 -3.5 25.6
09:00 1027 30.33 856 25.28 8.4 47 36 -5.9 21.3
09:05 1027 30.33 856 25.28 8.9 48 37 -4.9 23.2
09:10 1027 30.33 856 25.28 8.9 47.9 35 -5.7 21.8
09:15 1027 30.33 856 25.28 9.4 49 32 -6.3 20.7
09:20 1027 30.33 856 25.28 10.1 50.2 32 -5.7 21.7
09:25 1027 30.33 856 25.28 10.2 50.3 32 -5.8 21.6
09:30 1027 30.33 856 25.28 10.5 50.9 31 -5.7 21.7
09:35 1027 30.33 856 25.28 10.3 50.5 33 -5.1 22.8
09:40 1027 30.33 856 25.28 10.7 51.2 31 -5.9 21.4
09:45 1027 30.33 856 25.28 10.8 51.5 31 -5.8 21.6
09:50 1027 30.33 856 25.28 11.4 52.5 28 -6.4 20.5
09:55 1027 30.33 856 25.28 12 53.5 28 -5.9 21.4
10:00 1027 30.33 856 25.28 11.7 53.1 30 -5.2 22.6
10:05 1027 30.33 856 25.28 12 53.7 28 -5.9 21.3
10:10 1027 30.33 856 25.28 11.8 53.2 31 -4.9 23.1
10:15 1027 30.33 856 25.28 11.7 53 28 -6.2 20.8
10:20 1027 30.33 856 25.28 11.5 52.7 30 -5.4 22.3
10:25 1027 30.33 856 25.28 11.8 53.3 30 -5.2 22.6
10:30 1027 30.33 856 25.28 12.7 54.9 28 -5.4 22.3
10:35 1027 30.33 856 25.28 13 55.3 28 -4.8 23.3
10:40 1027 30.33 856 25.28 13.1 55.6 29 -4.3 24.2
10:45 1027 30.33 856 25.28 13.2 55.8 28 -4.8 23.4
10:50 1027 30.33 856 25.28 13.3 55.9 27 -5.4 22.3
10:55 1027 30.33 856 25.28 13.3 55.9 28 -4.6 23.7
11:00 1027 30.33 856 25.28 12.9 55.3 30 -4.2 24.5
11:05 1027 30.33 856 25.28 13 55.3 28 -4.9 23.2
11:10 1026 30.3 856 25.28 13.6 56.4 31 -3.3 26
11:15 1026 30.3 856 25.28 14.4 58 27 -4.3 24.2
11:20 1027 30.33 856 25.28 14.8 58.6 24 -5.5 22.2
11:25 1027 30.33 856 25.28 14.6 58.3 25 -4.9 23.1
11:30 1027 30.33 856 25.28 14.8 58.7 25 -4.9 23.2
11:35 1027 30.33 856 25.28 14.6 58.2 24 -5.4 22.2
11:40 1027 30.33 856 25.28 14.4 57.9 22 -7 19.4
11:45 1027 30.33 856 25.28 14.7 58.4 23 -6.3 20.7
11:50 1027 30.33 856 25.28 15 59.1 22 -6.3 20.7
11:55 1027 30.33 856 25.28 15.5 59.9 22 -6.2 20.8
12:00 1027 30.33 856 25.28 16.2 61.1 21 -6.4 20.5
12:05 1026 30.3 856 25.28 16.1 60.9 18 -7.9 17.8
12:10 1026 30.3 856 25.28 15.9 60.6 19 -7.9 17.8
12:15 1026 30.3 856 25.28 15.9 60.5 21 -6.3 20.6
12:20 1026 30.3 856 25.28 16 60.7 21 -6.2 20.9
12:25 1026 30.3 856 25.28 16.4 61.5 22 -5.6 21.9
12:30 1026 30.3 856 25.28 15.8 60.4 22 -5.7 21.8
12:35 1026 30.3 856 25.28 15.2 59.3 19 -8.2 17.3
12:40 1026 30.3 856 25.28 15.4 59.7 20 -7.1 19.2
12:45 1026 30.3 856 25.28 15.5 59.9 21 -6.8 19.7
12:50 1026 30.3 856 25.28 15.4 59.7 20 -7.3 18.8
12:55 1026 30.3 855 25.25 15.7 60.3 19 -7.5 18.4
13:00 1026 30.3 855 25.25 15.8 60.4 19 -7.6 18.3
13:05 1026 30.3 855 25.25 15.5 59.9 20 -7 19.3
13:10 1026 30.3 855 25.25 15.4 59.8 20 -7.5 18.5
13:15 1026 30.3 855 25.25 15.5 59.9 20 -7.1 19.2
13:20 1026 30.3 855 25.25 15.6 60.1 20 -7.4 18.6
13:25 1026 30.3 855 25.25 15.5 59.9 20 -7.3 18.9
13:30 1026 30.3 855 25.25 15.5 60 19 -7.9 17.7
13:35 1026 30.3 855 25.25 15.4 59.8 20 -7.1 19.2
13:40 1026 30.3 855 25.25 15.2 59.4 20 -7.7 18.1
13:45 1026 30.3 855 25.25 15.1 59.2 20 -7.8 18
13:50 1026 30.3 855 25.25 15.5 60 21 -6.3 20.6
13:55 1026 30.3 855 25.25 15.6 60 22 -6 21.2
14:00 1026 30.3 855 25.25 15.6 60 22 -5.8 21.5
14:05 1026 30.3 855 25.25 15.3 59.5 22 -6.1 20.9
14:10 1026 30.3 855 25.25 15.7 60.2 22 -5.6 21.9
14:15 1026 30.3 855 25.25 15.7 60.3 22 -5.9 21.3
14:20 1026 30.3 855 25.25 15.9 60.5 23 -5.2 22.6
14:25 1026 30.3 855 25.25 16 60.9 22 -5.9 21.4
14:30 1026 30.3 855 25.25 16.4 61.4 21 -5.8 21.6
14:35 1026 30.3 855 25.25 16.3 61.4 22 -5.2 22.6
14:40 1026 30.3 855 25.25 16.6 61.8 20 -6.5 20.4
14:45 1026 30.3 855 25.25 16.5 61.7 20 -6.5 20.2
14:50 1026 30.3 855 25.25 16.7 62 21 -5.8 21.6
14:55 1026 30.3 855 25.25 16.7 62.1 20 -6.5 20.3
15:00 1026 30.3 855 25.25 16.7 62.1 20 -6.4 20.5
15:05 1026 30.3 855 25.25 16.6 61.9 19 -6.7 19.9
15:10 1026 30.3 855 25.25 16.8 62.2 19 -6.7 19.9
15:15 1026 30.3 855 25.25 16.8 62.2 20 -6.4 20.4
15:20 1026 30.3 855 25.25 16.7 62 19 -6.6 20.1
15:25 1025 30.27 855 25.25 16.5 61.8 20 -6.3 20.6
15:30 1025 30.27 855 25.25 16.9 62.5 19 -6.8 19.7
15:35 1025 30.27 855 25.25 16.8 62.2 19 -6.6 20.1
15:40 1025 30.27 855 25.25 16.2 61.1 20 -6.9 19.5
15:45 1025 30.27 855 25.25 16.7 62.1 19 -6.6 20.1
15:50 1025 30.27 855 25.25 16.7 62 21 -5.5 22.1
15:55 1025 30.27 855 25.25 16.4 61.5 20 -6.3 20.7
16:00 1025 30.27 854 25.22 16.6 61.8 22 -5.2 22.6
16:05 1025 30.27 854 25.22 16.7 62.1 22 -4.9 23.2
16:10 1025 30.27 854 25.22 16.1 61 22 -5.6 21.9
16:15 1025 30.27 854 25.22 16.2 61.1 21 -6.2 20.8
16:20 1025 30.27 854 25.22 16.8 62.3 21 -5.6 21.9
16:25 1025 30.27 854 25.22 16.7 62.1 21 -5.8 21.6
16:30 1025 30.27 854 25.22 16.5 61.6 21 -6.1 21
16:35 1025 30.27 854 25.22 16.5 61.7 22 -5.3 22.5
16:40 1025 30.27 854 25.22 16.1 61 22 -5.7 21.8
16:45 1025 30.27 854 25.22 16.2 61.2 21 -5.8 21.6
16:50 1025 30.27 854 25.22 16.6 61.9 20 -6.6 20.2
16:55 1025 30.27 854 25.22 16.7 62 21 -6 21.3
17:00 1025 30.27 854 25.22 16.5 61.8 21 -5.8 21.6
17:05 1025 30.27 854 25.22 16.4 61.6 21 -5.8 21.6
17:10 1025 30.27 854 25.22 16.5 61.7 23 -4.9 23.2
17:15 1025 30.27 854 25.22 16.6 61.8 22 -5.1 22.9
17:20 1025 30.27 854 25.22 16.6 61.9 21 -5.6 21.9
17:25 1025 30.27 854 25.22 16.6 61.9 22 -5.4 22.4
17:30 1025 30.27 854 25.22 16.7 62 22 -5.2 22.6
17:35 1025 30.27 854 25.22 16.7 62 22 -5.2 22.6
17:40 1025 30.27 854 25.22 16.7 62 21 -5.4 22.3
17:45 1025 30.27 854 25.22 16.5 61.8 23 -4.4 24.1
17:50 1025 30.27 854 25.22 16.3 61.3 23 -4.8 23.4
17:55 1025 30.27 854 25.22 15.9 60.7 25 -4.1 24.5
18:00 1025 30.27 854 25.22 15.8 60.4 25 -4.2 24.4
18:05 1025 30.27 854 25.22 15.7 60.3 24 -4.4 24
18:10 1025 30.27 854 25.22 15.6 60.2 25 -4.2 24.5
18:15 1025 30.27 854 25.22 15.5 60 26 -4 24.9
18:20 1025 30.27 854 25.22 15.5 59.9 26 -3.7 25.3
18:25 1025 30.27 854 25.22 15.4 59.7 26 -3.7 25.3
18:30 1025 30.27 854 25.22 15.2 59.4 27 -3.7 25.3
18:35 1025 30.27 854 25.22 15.1 59.1 27 -3.8 25.1
18:40 1025 30.27 854 25.22 15 59 27 -3.7 25.3
18:45 1025 30.27 854 25.22 14.9 58.8 28 -3.6 25.6
18:50 1025 30.27 854 25.22 14.8 58.6 28 -3.2 26.2
18:55 1025 30.27 854 25.22 14.7 58.5 28 -3.6 25.5
19:00 1025 30.27 854 25.22 14.7 58.5 28 -3.6 25.5
19:05 1025 30.27 854 25.22 14.7 58.5 28 -3.4 25.9
19:10 1025 30.27 854 25.22 14.6 58.3 29 -3 26.6
19:15 1025 30.27 855 25.25 14.5 58 30 -2.6 27.3
19:20 1025 30.27 855 25.25 14.4 57.8 31 -2.6 27.4
19:25 1025 30.27 854 25.22 14.3 57.7 31 -2.4 27.6
19:30 1025 30.27 855 25.25 14.2 57.5 32 -2.2 28
19:35 1025 30.27 855 25.25 14.1 57.3 32 -2.3 27.8
19:40 1025 30.27 855 25.25 14 57.2 32 -2.3 27.8
19:45 1025 30.27 855 25.25 14 57.1 32 -2.2 28.1
19:50 1025 30.27 855 25.25 13.9 57 33 -2.3 27.9
19:55 1025 30.27 855 25.25 13.9 56.9 32 -2.4 27.8
20:00 1025 30.27 855 25.25 13.9 56.9 32 -2.3 27.8
20:05 1025 30.27 855 25.25 13.8 56.9 33 -2.1 28.2
20:10 1025 30.27 855 25.25 13.7 56.7 33 -2.1 28.3
20:15 1025 30.27 855 25.25 13.6 56.6 33 -2.1 28.2
20:20 1025 30.27 855 25.25 13.6 56.4 34 -2 28.4
20:25 1026 30.3 855 25.25 13.5 56.3 34 -1.8 28.8
20:30 1026 30.3 855 25.25 13.4 56.1 36 -1.4 29.5
20:35 1026 30.3 855 25.25 13.2 55.7 37 -1.1 30
20:40 1025 30.27 855 25.25 13 55.3 38 -1 30.1
20:45 1025 30.27 855 25.25 12.9 55.1 37 -1.6 29.2
20:50 1025 30.27 855 25.25 12.9 55.2 36 -1.6 29.1
20:55 1025 30.27 855 25.25 12.9 55.2 39 -0.8 30.6
21:00 1025 30.27 855 25.25 12.5 54.6 41 -0.4 31.2
21:05 1025 30.27 855 25.25 12.3 54.1 42 -0.2 31.7
21:10 1025 30.27 855 25.25 11.9 53.4 45 0.4 32.8
21:15 1026 30.3 855 25.25 11.3 52.4 48 0.7 33.3
21:20 1026 30.3 855 25.25 10.8 51.4 51 1.1 34
21:25 1026 30.3 855 25.25 10.4 50.8 51 0.7 33.2
21:30 1026 30.3 855 25.25 10.2 50.4 49 0.2 32.3
21:35 1026 30.3 855 25.25 10.3 50.6 48 -0.2 31.7
21:40 1026 30.3 855 25.25 10.6 51.1 44 -1 30.3
21:45 1026 30.3 855 25.25 10.8 51.4 46 -0.4 31.4
21:50 1026 30.3 855 25.25 10.7 51.2 45 -0.6 31
21:55 1026 30.3 855 25.25 10.7 51.2 44 -1.1 30
22:00 1026 30.3 855 25.25 10.6 51 47 -0.3 31.4
22:05 1026 30.3 855 25.25 10.4 50.7 44 -1.2 29.8
22:10 1026 30.3 855 25.25 10.6 51.2 44 -1 30.2
22:15 1026 30.3 855 25.25 10.7 51.2 44 -1.2 29.9
22:20 1026 30.3 855 25.25 10.8 51.4 44 -1 30.1
22:25 1026 30.3 855 25.25 10.7 51.3 44 -1.1 30.1
22:30 1026 30.3 855 25.25 10.8 51.4 43 -1.3 29.7
22:35 1026 30.3 855 25.25 10.7 51.3 44 -1.1 30
22:40 1026 30.3 855 25.25 10.5 51 44 -1.2 29.8
22:45 1026 30.3 855 25.25 10.7 51.2 43 -1.3 29.7
22:50 1026 30.3 855 25.25 10.9 51.5 42 -1.6 29.1
22:55 1026 30.3 855 25.25 11.1 52 41 -1.5 29.4
23:00 1026 30.3 855 25.25 11.2 52.1 41 -1.4 29.4
23:05 1026 30.3 855 25.25 11.3 52.3 41 -1.6 29.1
23:10 1026 30.3 855 25.25 11.4 52.6 40 -1.7 28.9
23:15 1026 30.3 855 25.25 11.5 52.7 40 -1.7 28.9
23:20 1026 30.3 855 25.25 11.5 52.6 40 -1.6 29.1
23:25 1026 30.3 855 25.25 11.4 52.6 39 -2 28.4
23:30 1026 30.3 855 25.25 11.6 52.9 38 -2.2 28
23:35 1026 30.3 855 25.25 11.9 53.4 37 -2.3 27.9
23:40 1026 30.3 855 25.25 11.9 53.4 37 -2.4 27.7
23:45 1026 30.3 855 25.25 11.8 53.3 38 -2.1 28.2
23:50 1026 30.3 855 25.25 11.7 53.1 38 -1.9 28.5
23:55 1026 30.3 855 25.25 11.6 52.9 39 -1.7 29
24:00 1026 30.3 855 25.25 11.5 52.7 40 -1.7 28.9